sensor_id;sensor_type;location;lat;lon;timestamp;pressure;altitude;pressure_sealevel;temperature;humidity
11268;BME280;49397;47.474;9.416;2023-07-20T00:01:10;95375.50;;;21.16;56.62
11268;BME280;49397;47.474;9.416;2023-07-20T00:03:36;95377.50;;;21.22;56.82
11268;BME280;49397;47.474;9.416;2023-07-20T00:06:01;95377.13;;;21.24;56.64
11268;BME280;49397;47.474;9.416;2023-07-20T00:08:26;95368.19;;;21.23;56.57
11268;BME280;49397;47.474;9.416;2023-07-20T00:10:52;95360.00;;;21.20;56.50
11268;BME280;49397;47.474;9.416;2023-07-20T00:13:17;95372.09;;;21.26;56.71
11268;BME280;49397;47.474;9.416;2023-07-20T00:15:44;95373.28;;;21.25;56.55
11268;BME280;49397;47.474;9.416;2023-07-20T00:18:09;95374.03;;;21.22;56.67
11268;BME280;49397;47.474;9.416;2023-07-20T00:20:35;95382.47;;;21.13;58.27
11268;BME280;49397;47.474;9.416;2023-07-20T00:23:00;95380.22;;;21.19;58.19
11268;BME280;49397;47.474;9.416;2023-07-20T00:25:25;95379.91;;;21.31;57.18
11268;BME280;49397;47.474;9.416;2023-07-20T00:27:51;95373.31;;;21.32;57.67
11268;BME280;49397;47.474;9.416;2023-07-20T00:30:16;95376.75;;;21.25;59.10
11268;BME280;49397;47.474;9.416;2023-07-20T00:32:43;95374.78;;;21.22;57.98
11268;BME280;49397;47.474;9.416;2023-07-20T00:35:08;95367.84;;;21.25;58.36
11268;BME280;49397;47.474;9.416;2023-07-20T00:37:34;95360.06;;;21.27;55.83
11268;BME280;49397;47.474;9.416;2023-07-20T00:40:00;95365.16;;;21.28;55.71
11268;BME280;49397;47.474;9.416;2023-07-20T00:42:25;95368.63;;;21.29;56.73
11268;BME280;49397;47.474;9.416;2023-07-20T00:44:50;95363.22;;;21.32;56.72
11268;BME280;49397;47.474;9.416;2023-07-20T00:47:16;95362.06;;;21.33;55.59
11268;BME280;49397;47.474;9.416;2023-07-20T00:49:41;95369.75;;;21.24;55.51
11268;BME280;49397;47.474;9.416;2023-07-20T00:52:10;95374.03;;;21.25;54.81
11268;BME280;49397;47.474;9.416;2023-07-20T00:54:37;95363.16;;;21.25;55.44
11268;BME280;49397;47.474;9.416;2023-07-20T00:57:02;95380.56;;;21.17;55.68
11268;BME280;49397;47.474;9.416;2023-07-20T00:59:29;95370.91;;;21.23;56.15
11268;BME280;49397;47.474;9.416;2023-07-20T01:01:54;95373.19;;;21.18;56.98
11268;BME280;49397;47.474;9.416;2023-07-20T01:04:20;95378.56;;;21.10;56.36
11268;BME280;49397;47.474;9.416;2023-07-20T01:07:12;95372.25;;;20.99;57.16
11268;BME280;49397;47.474;9.416;2023-07-20T01:09:44;95371.38;;;20.92;57.39
11268;BME280;49397;47.474;9.416;2023-07-20T01:12:20;95375.16;;;20.80;57.91
11268;BME280;49397;47.474;9.416;2023-07-20T01:14:48;95373.63;;;20.83;58.24
11268;BME280;49397;47.474;9.416;2023-07-20T01:17:14;95368.97;;;20.83;58.49
11268;BME280;49397;47.474;9.416;2023-07-20T01:19:39;95380.19;;;20.82;59.87
11268;BME280;49397;47.474;9.416;2023-07-20T01:24:56;95372.00;;;20.78;60.79
11268;BME280;49397;47.474;9.416;2023-07-20T01:33:16;95378.94;;;20.72;59.91
11268;BME280;49397;47.474;9.416;2023-07-20T01:35:43;95372.41;;;20.77;59.58
11268;BME280;49397;47.474;9.416;2023-07-20T01:38:11;95363.13;;;20.81;60.11
11268;BME280;49397;47.474;9.416;2023-07-20T01:40:38;95363.88;;;20.78;59.85
11268;BME280;49397;47.474;9.416;2023-07-20T01:43:05;95364.97;;;20.70;60.37
11268;BME280;49397;47.474;9.416;2023-07-20T01:45:30;95379.31;;;20.71;60.44
11268;BME280;49397;47.474;9.416;2023-07-20T01:47:55;95374.91;;;20.59;61.60
11268;BME280;49397;47.474;9.416;2023-07-20T01:50:21;95370.22;;;20.56;61.86
11268;BME280;49397;47.474;9.416;2023-07-20T01:52:46;95360.97;;;20.61;60.95
11268;BME280;49397;47.474;9.416;2023-07-20T01:55:11;95354.00;;;20.63;60.17
11268;BME280;49397;47.474;9.416;2023-07-20T01:57:37;95359.41;;;20.59;60.79
11268;BME280;49397;47.474;9.416;2023-07-20T02:00:03;95356.28;;;20.57;60.98
11268;BME280;49397;47.474;9.416;2023-07-20T02:02:29;95361.78;;;20.65;60.02
11268;BME280;49397;47.474;9.416;2023-07-20T02:04:54;95376.00;;;20.51;61.15
11268;BME280;49397;47.474;9.416;2023-07-20T02:07:19;95374.78;;;20.45;62.29
11268;BME280;49397;47.474;9.416;2023-07-20T02:09:45;95363.94;;;20.48;63.04
11268;BME280;49397;47.474;9.416;2023-07-20T02:12:10;95366.19;;;20.43;62.09
11268;BME280;49397;47.474;9.416;2023-07-20T02:14:35;95373.91;;;20.37;60.59
11268;BME280;49397;47.474;9.416;2023-07-20T02:17:01;95380.81;;;20.31;60.98
11268;BME280;49397;47.474;9.416;2023-07-20T02:19:28;95372.66;;;20.31;61.40
11268;BME280;49397;47.474;9.416;2023-07-20T02:21:54;95381.59;;;20.32;60.74
11268;BME280;49397;47.474;9.416;2023-07-20T02:24:19;95377.19;;;20.24;60.56
11268;BME280;49397;47.474;9.416;2023-07-20T02:26:44;95371.56;;;20.39;61.01
11268;BME280;49397;47.474;9.416;2023-07-20T02:29:10;95372.00;;;20.41;59.19
11268;BME280;49397;47.474;9.416;2023-07-20T02:31:37;95370.81;;;20.39;58.56
11268;BME280;49397;47.474;9.416;2023-07-20T02:34:05;95370.84;;;20.42;58.72
11268;BME280;49397;47.474;9.416;2023-07-20T02:36:31;95366.94;;;20.40;59.37
11268;BME280;49397;47.474;9.416;2023-07-20T02:38:58;95379.38;;;20.41;59.43
11268;BME280;49397;47.474;9.416;2023-07-20T02:41:23;95383.97;;;20.37;59.41
11268;BME280;49397;47.474;9.416;2023-07-20T02:43:49;95378.72;;;20.51;59.71
11268;BME280;49397;47.474;9.416;2023-07-20T02:46:15;95376.34;;;20.49;60.94
11268;BME280;49397;47.474;9.416;2023-07-20T02:48:40;95383.22;;;20.40;60.65
11268;BME280;49397;47.474;9.416;2023-07-20T02:51:05;95380.97;;;20.45;59.73
11268;BME280;49397;47.474;9.416;2023-07-20T02:53:33;95377.78;;;20.40;59.63
11268;BME280;49397;47.474;9.416;2023-07-20T02:55:58;95385.09;;;20.32;59.79
11268;BME280;49397;47.474;9.416;2023-07-20T02:58:23;95393.97;;;20.29;59.67
11268;BME280;49397;47.474;9.416;2023-07-20T03:00:49;95397.69;;;20.21;59.31
11268;BME280;49397;47.474;9.416;2023-07-20T03:03:14;95395.78;;;20.22;61.43
11268;BME280;49397;47.474;9.416;2023-07-20T03:05:42;95399.84;;;20.35;62.77
11268;BME280;49397;47.474;9.416;2023-07-20T03:08:08;95403.81;;;20.15;61.56
11268;BME280;49397;47.474;9.416;2023-07-20T03:10:39;95401.09;;;20.15;61.95
11268;BME280;49397;47.474;9.416;2023-07-20T03:13:04;95407.72;;;20.17;63.95
11268;BME280;49397;47.474;9.416;2023-07-20T03:15:30;95398.22;;;20.00;63.58
11268;BME280;49397;47.474;9.416;2023-07-20T03:17:56;95400.50;;;19.98;64.92
11268;BME280;49397;47.474;9.416;2023-07-20T03:20:24;95398.78;;;19.87;63.90
11268;BME280;49397;47.474;9.416;2023-07-20T03:22:49;95396.75;;;19.80;65.00
11268;BME280;49397;47.474;9.416;2023-07-20T03:25:14;95399.75;;;19.72;65.29
11268;BME280;49397;47.474;9.416;2023-07-20T03:27:40;95397.38;;;19.70;64.40
11268;BME280;49397;47.474;9.416;2023-07-20T03:30:06;95405.94;;;19.72;63.25
11268;BME280;49397;47.474;9.416;2023-07-20T03:32:32;95398.28;;;19.78;64.49
11268;BME280;49397;47.474;9.416;2023-07-20T03:34:58;95404.84;;;19.77;63.56
11268;BME280;49397;47.474;9.416;2023-07-20T03:37:23;95411.78;;;19.74;64.89
11268;BME280;49397;47.474;9.416;2023-07-20T03:39:48;95417.16;;;19.71;63.69
11268;BME280;49397;47.474;9.416;2023-07-20T03:42:14;95413.13;;;19.61;64.19
11268;BME280;49397;47.474;9.416;2023-07-20T03:44:39;95418.19;;;19.63;65.00
11268;BME280;49397;47.474;9.416;2023-07-20T03:47:05;95423.91;;;19.58;65.47
11268;BME280;49397;47.474;9.416;2023-07-20T03:49:30;95430.91;;;19.59;64.44
11268;BME280;49397;47.474;9.416;2023-07-20T03:51:56;95435.03;;;19.49;65.67
11268;BME280;49397;47.474;9.416;2023-07-20T03:54:21;95438.41;;;19.42;66.56
11268;BME280;49397;47.474;9.416;2023-07-20T03:56:46;95431.78;;;19.40;66.11
11268;BME280;49397;47.474;9.416;2023-07-20T03:59:12;95426.03;;;19.45;65.52
11268;BME280;49397;47.474;9.416;2023-07-20T04:01:37;95434.91;;;19.42;66.60
11268;BME280;49397;47.474;9.416;2023-07-20T04:04:06;95432.59;;;19.44;67.90
11268;BME280;49397;47.474;9.416;2023-07-20T04:06:32;95426.78;;;19.42;66.74
11268;BME280;49397;47.474;9.416;2023-07-20T04:08:57;95414.19;;;19.34;67.28
11268;BME280;49397;47.474;9.416;2023-07-20T04:11:23;95424.28;;;19.33;66.70
11268;BME280;49397;47.474;9.416;2023-07-20T04:13:48;95419.94;;;19.29;66.35
11268;BME280;49397;47.474;9.416;2023-07-20T04:16:13;95416.09;;;19.30;67.41
11268;BME280;49397;47.474;9.416;2023-07-20T04:18:39;95428.91;;;19.33;67.39
11268;BME280;49397;47.474;9.416;2023-07-20T04:21:04;95427.00;;;19.33;68.13
11268;BME280;49397;47.474;9.416;2023-07-20T04:23:30;95429.56;;;19.26;68.44
11268;BME280;49397;47.474;9.416;2023-07-20T04:25:55;95436.00;;;19.18;68.15
11268;BME280;49397;47.474;9.416;2023-07-20T04:28:20;95433.41;;;19.02;68.58
11268;BME280;49397;47.474;9.416;2023-07-20T04:30:49;95443.75;;;18.97;68.81
11268;BME280;49397;47.474;9.416;2023-07-20T04:33:16;95441.91;;;19.01;68.29
11268;BME280;49397;47.474;9.416;2023-07-20T04:35:51;95437.75;;;19.07;68.14
11268;BME280;49397;47.474;9.416;2023-07-20T04:38:17;95418.47;;;19.12;66.28
11268;BME280;49397;47.474;9.416;2023-07-20T04:40:44;95435.66;;;19.20;65.25
11268;BME280;49397;47.474;9.416;2023-07-20T04:43:10;95441.88;;;19.20;67.28
11268;BME280;49397;47.474;9.416;2023-07-20T04:45:35;95448.47;;;19.23;64.80
11268;BME280;49397;47.474;9.416;2023-07-20T04:48:00;95449.06;;;19.13;64.91
11268;BME280;49397;47.474;9.416;2023-07-20T04:50:26;95459.91;;;19.13;65.78
11268;BME280;49397;47.474;9.416;2023-07-20T04:52:51;95459.06;;;19.09;67.29
11268;BME280;49397;47.474;9.416;2023-07-20T04:55:17;95446.59;;;19.04;67.38
11268;BME280;49397;47.474;9.416;2023-07-20T04:57:42;95451.44;;;19.14;67.34
11268;BME280;49397;47.474;9.416;2023-07-20T05:00:08;95448.91;;;19.25;65.32
11268;BME280;49397;47.474;9.416;2023-07-20T05:02:36;95447.28;;;19.20;64.01
11268;BME280;49397;47.474;9.416;2023-07-20T05:05:03;95448.47;;;19.23;64.16
11268;BME280;49397;47.474;9.416;2023-07-20T05:07:31;95445.00;;;19.22;64.10
11268;BME280;49397;47.474;9.416;2023-07-20T05:09:56;95452.03;;;19.27;64.68
11268;BME280;49397;47.474;9.416;2023-07-20T05:12:22;95453.13;;;19.22;62.47
11268;BME280;49397;47.474;9.416;2023-07-20T05:14:47;95459.50;;;19.11;63.42
11268;BME280;49397;47.474;9.416;2023-07-20T05:17:12;95465.13;;;19.02;64.19
11268;BME280;49397;47.474;9.416;2023-07-20T05:19:38;95459.94;;;18.93;65.87
11268;BME280;49397;47.474;9.416;2023-07-20T05:22:03;95467.84;;;19.02;65.93
11268;BME280;49397;47.474;9.416;2023-07-20T05:24:30;95458.28;;;19.08;65.88
11268;BME280;49397;47.474;9.416;2023-07-20T05:26:56;95459.06;;;19.09;64.23
11268;BME280;49397;47.474;9.416;2023-07-20T05:29:21;95450.94;;;19.09;65.11
11268;BME280;49397;47.474;9.416;2023-07-20T05:31:46;95444.91;;;19.19;63.93
11268;BME280;49397;47.474;9.416;2023-07-20T05:34:12;95441.34;;;19.15;64.60
11268;BME280;49397;47.474;9.416;2023-07-20T05:36:37;95442.47;;;19.10;65.09
11268;BME280;49397;47.474;9.416;2023-07-20T05:39:02;95451.69;;;19.51;65.08
11268;BME280;49397;47.474;9.416;2023-07-20T05:41:28;95451.75;;;19.77;64.79
11268;BME280;49397;47.474;9.416;2023-07-20T05:43:53;95442.53;;;20.12;62.94
11268;BME280;49397;47.474;9.416;2023-07-20T05:46:19;95445.22;;;20.08;62.43
11268;BME280;49397;47.474;9.416;2023-07-20T05:48:44;95443.84;;;19.95;60.44
11268;BME280;49397;47.474;9.416;2023-07-20T05:51:09;95442.53;;;19.85;62.19
11268;BME280;49397;47.474;9.416;2023-07-20T05:53:35;95443.16;;;19.75;62.27
11268;BME280;49397;47.474;9.416;2023-07-20T05:56:01;95448.50;;;19.68;63.48
11268;BME280;49397;47.474;9.416;2023-07-20T05:58:26;95440.97;;;19.58;63.23
11268;BME280;49397;47.474;9.416;2023-07-20T06:00:53;95442.44;;;19.52;62.48
11268;BME280;49397;47.474;9.416;2023-07-20T06:03:18;95448.66;;;19.56;61.21
11268;BME280;49397;47.474;9.416;2023-07-20T06:05:46;95445.13;;;19.75;60.70
11268;BME280;49397;47.474;9.416;2023-07-20T06:08:12;95443.50;;;19.96;59.90
11268;BME280;49397;47.474;9.416;2023-07-20T06:10:37;95443.06;;;19.94;58.17
11268;BME280;49397;47.474;9.416;2023-07-20T06:13:02;95444.97;;;19.90;58.19
11268;BME280;49397;47.474;9.416;2023-07-20T06:15:31;95449.91;;;19.85;60.01
11268;BME280;49397;47.474;9.416;2023-07-20T06:17:57;95448.66;;;19.79;58.25
11268;BME280;49397;47.474;9.416;2023-07-20T06:20:23;95454.00;;;19.75;58.94
11268;BME280;49397;47.474;9.416;2023-07-20T06:22:49;95459.63;;;19.63;60.87
11268;BME280;49397;47.474;9.416;2023-07-20T06:25:14;95451.41;;;19.37;61.39
11268;BME280;49397;47.474;9.416;2023-07-20T06:27:40;95455.69;;;19.38;61.02
11268;BME280;49397;47.474;9.416;2023-07-20T06:30:07;95459.06;;;19.31;61.46
11268;BME280;49397;47.474;9.416;2023-07-20T06:32:32;95458.91;;;19.43;62.15
11268;BME280;49397;47.474;9.416;2023-07-20T06:34:57;95454.72;;;19.46;61.39
11268;BME280;49397;47.474;9.416;2023-07-20T06:37:23;95447.00;;;19.48;59.38
11268;BME280;49397;47.474;9.416;2023-07-20T06:39:49;95443.31;;;19.60;60.96
11268;BME280;49397;47.474;9.416;2023-07-20T06:42:14;95448.84;;;19.67;58.79
11268;BME280;49397;47.474;9.416;2023-07-20T06:44:40;95448.66;;;19.56;60.60
11268;BME280;49397;47.474;9.416;2023-07-20T06:47:05;95445.28;;;19.63;59.14
11268;BME280;49397;47.474;9.416;2023-07-20T06:49:30;95446.34;;;19.54;60.78
11268;BME280;49397;47.474;9.416;2023-07-20T06:51:56;95443.38;;;19.63;60.01
11268;BME280;49397;47.474;9.416;2023-07-20T06:54:22;95445.59;;;19.58;58.24
11268;BME280;49397;47.474;9.416;2023-07-20T06:56:47;95439.28;;;19.50;59.78
11268;BME280;49397;47.474;9.416;2023-07-20T06:59:13;95436.47;;;19.43;60.21
11268;BME280;49397;47.474;9.416;2023-07-20T07:01:38;95438.47;;;19.72;60.62
11268;BME280;49397;47.474;9.416;2023-07-20T07:04:04;95437.63;;;19.91;57.18
11268;BME280;49397;47.474;9.416;2023-07-20T07:06:31;95437.41;;;20.33;57.43
11268;BME280;49397;47.474;9.416;2023-07-20T07:08:56;95437.47;;;20.66;55.42
11268;BME280;49397;47.474;9.416;2023-07-20T07:11:22;95434.78;;;21.06;54.17
11268;BME280;49397;47.474;9.416;2023-07-20T07:13:49;95433.97;;;21.39;53.86
11268;BME280;49397;47.474;9.416;2023-07-20T07:16:16;95434.06;;;21.09;51.82
11268;BME280;49397;47.474;9.416;2023-07-20T07:18:47;95427.50;;;21.10;51.76
11268;BME280;49397;47.474;9.416;2023-07-20T07:21:13;95435.41;;;20.89;52.70
11268;BME280;49397;47.474;9.416;2023-07-20T07:23:39;95430.13;;;21.07;53.73
11268;BME280;49397;47.474;9.416;2023-07-20T07:26:05;95438.19;;;21.33;50.44
11268;BME280;49397;47.474;9.416;2023-07-20T07:28:30;95438.78;;;21.56;49.80
11268;BME280;49397;47.474;9.416;2023-07-20T07:30:57;95444.75;;;21.73;51.39
11268;BME280;49397;47.474;9.416;2023-07-20T07:33:22;95443.56;;;21.74;50.12
11268;BME280;49397;47.474;9.416;2023-07-20T07:35:50;95441.56;;;21.67;50.52
11268;BME280;49397;47.474;9.416;2023-07-20T07:38:16;95438.66;;;21.42;51.83
11268;BME280;49397;47.474;9.416;2023-07-20T07:40:42;95442.44;;;21.31;52.78
11268;BME280;49397;47.474;9.416;2023-07-20T07:43:08;95435.72;;;21.18;54.10
11268;BME280;49397;47.474;9.416;2023-07-20T07:45:35;95443.84;;;21.14;54.51
11268;BME280;49397;47.474;9.416;2023-07-20T07:48:03;95438.34;;;21.10;52.72
11268;BME280;49397;47.474;9.416;2023-07-20T07:50:29;95439.22;;;21.18;51.79
11268;BME280;49397;47.474;9.416;2023-07-20T07:52:55;95436.72;;;21.02;51.77
11268;BME280;49397;47.474;9.416;2023-07-20T07:55:20;95434.19;;;21.20;52.78
11268;BME280;49397;47.474;9.416;2023-07-20T07:57:45;95435.75;;;21.21;51.92
11268;BME280;49397;47.474;9.416;2023-07-20T08:00:13;95430.00;;;21.30;49.74
11268;BME280;49397;47.474;9.416;2023-07-20T08:02:43;95433.59;;;21.41;50.32
11268;BME280;49397;47.474;9.416;2023-07-20T08:05:09;95425.41;;;21.85;50.63
11268;BME280;49397;47.474;9.416;2023-07-20T08:07:35;95428.09;;;21.81;48.10
11268;BME280;49397;47.474;9.416;2023-07-20T08:10:00;95430.00;;;21.77;49.78
11268;BME280;49397;47.474;9.416;2023-07-20T08:12:26;95422.41;;;21.49;49.25
11268;BME280;49397;47.474;9.416;2023-07-20T08:14:52;95425.09;;;21.93;49.04
11268;BME280;49397;47.474;9.416;2023-07-20T08:17:17;95434.28;;;21.78;47.55
11268;BME280;49397;47.474;9.416;2023-07-20T08:19:43;95428.78;;;21.71;49.31
11268;BME280;49397;47.474;9.416;2023-07-20T08:22:09;95429.88;;;22.10;48.10
11268;BME280;49397;47.474;9.416;2023-07-20T08:24:35;95431.56;;;22.33;48.83
11268;BME280;49397;47.474;9.416;2023-07-20T08:27:00;95425.69;;;22.27;47.71
11268;BME280;49397;47.474;9.416;2023-07-20T08:29:25;95423.31;;;22.22;48.14
11268;BME280;49397;47.474;9.416;2023-07-20T08:31:51;95420.34;;;22.52;49.08
11268;BME280;49397;47.474;9.416;2023-07-20T08:34:16;95419.28;;;22.67;48.22
11268;BME280;49397;47.474;9.416;2023-07-20T08:36:42;95422.31;;;22.55;47.17
11268;BME280;49397;47.474;9.416;2023-07-20T08:39:07;95421.16;;;22.63;48.30
11268;BME280;49397;47.474;9.416;2023-07-20T08:41:34;95427.34;;;22.53;47.21
11268;BME280;49397;47.474;9.416;2023-07-20T08:44:01;95427.81;;;22.62;47.91
11268;BME280;49397;47.474;9.416;2023-07-20T08:46:27;95428.91;;;22.54;47.42
11268;BME280;49397;47.474;9.416;2023-07-20T08:48:54;95426.28;;;22.75;47.48
11268;BME280;49397;47.474;9.416;2023-07-20T08:51:21;95422.38;;;22.65;47.70
11268;BME280;49397;47.474;9.416;2023-07-20T08:53:47;95416.19;;;22.69;46.19
11268;BME280;49397;47.474;9.416;2023-07-20T08:56:15;95420.06;;;22.71;47.64
11268;BME280;49397;47.474;9.416;2023-07-20T08:58:43;95417.38;;;22.85;48.37
11268;BME280;49397;47.474;9.416;2023-07-20T09:01:10;95418.81;;;22.58;46.97
11268;BME280;49397;47.474;9.416;2023-07-20T09:03:35;95409.22;;;22.89;47.48
11268;BME280;49397;47.474;9.416;2023-07-20T09:06:04;95414.72;;;23.13;46.80
11268;BME280;49397;47.474;9.416;2023-07-20T09:08:30;95416.66;;;23.09;47.89
11268;BME280;49397;47.474;9.416;2023-07-20T09:10:56;95410.47;;;23.34;47.54
11268;BME280;49397;47.474;9.416;2023-07-20T09:13:21;95403.50;;;23.57;47.93
11268;BME280;49397;47.474;9.416;2023-07-20T09:15:47;95401.13;;;23.49;46.82
11268;BME280;49397;47.474;9.416;2023-07-20T09:18:23;95396.06;;;23.68;47.31
11268;BME280;49397;47.474;9.416;2023-07-20T09:20:49;95401.53;;;23.86;47.44
11268;BME280;49397;47.474;9.416;2023-07-20T09:23:14;95398.38;;;23.91;47.08
11268;BME280;49397;47.474;9.416;2023-07-20T09:25:40;95393.28;;;24.04;46.39
11268;BME280;49397;47.474;9.416;2023-07-20T09:28:06;95391.00;;;23.81;45.31
11268;BME280;49397;47.474;9.416;2023-07-20T09:30:31;95386.72;;;23.80;46.35
11268;BME280;49397;47.474;9.416;2023-07-20T09:32:56;95383.59;;;23.82;45.20
11268;BME280;49397;47.474;9.416;2023-07-20T09:35:22;95390.59;;;23.86;45.34
11268;BME280;49397;47.474;9.416;2023-07-20T09:38:01;95384.00;;;23.69;45.46
11268;BME280;49397;47.474;9.416;2023-07-20T09:40:27;95384.34;;;23.93;46.29
11268;BME280;49397;47.474;9.416;2023-07-20T09:42:53;95381.25;;;23.73;46.22
11268;BME280;49397;47.474;9.416;2023-07-20T09:45:43;95384.75;;;23.91;47.18
11268;BME280;49397;47.474;9.416;2023-07-20T09:48:10;95381.16;;;24.30;45.54
11268;BME280;49397;47.474;9.416;2023-07-20T09:50:40;95382.19;;;24.64;45.57
11268;BME280;49397;47.474;9.416;2023-07-20T09:53:08;95377.84;;;24.73;45.50
11268;BME280;49397;47.474;9.416;2023-07-20T09:55:34;95379.50;;;24.57;45.03
11268;BME280;49397;47.474;9.416;2023-07-20T09:58:00;95369.63;;;24.84;45.06
11268;BME280;49397;47.474;9.416;2023-07-20T10:00:25;95375.59;;;24.54;45.15
11268;BME280;49397;47.474;9.416;2023-07-20T10:02:52;95373.38;;;24.10;46.54
11268;BME280;49397;47.474;9.416;2023-07-20T10:05:17;95369.84;;;24.31;45.77
11268;BME280;49397;47.474;9.416;2023-07-20T10:07:47;95368.84;;;24.84;45.10
11268;BME280;49397;47.474;9.416;2023-07-20T10:10:17;95362.75;;;24.44;44.71
11268;BME280;49397;47.474;9.416;2023-07-20T10:12:48;95363.00;;;24.74;44.61
11268;BME280;49397;47.474;9.416;2023-07-20T10:15:20;95368.53;;;24.64;42.77
11268;BME280;49397;47.474;9.416;2023-07-20T10:18:09;95373.09;;;24.95;44.13
11268;BME280;49397;47.474;9.416;2023-07-20T10:20:39;95360.00;;;24.44;45.40
11268;BME280;49397;47.474;9.416;2023-07-20T10:23:05;95361.50;;;24.63;43.54
11268;BME280;49397;47.474;9.416;2023-07-20T10:25:31;95358.34;;;24.68;44.63
11268;BME280;49397;47.474;9.416;2023-07-20T10:27:58;95353.03;;;25.12;45.36
11268;BME280;49397;47.474;9.416;2023-07-20T10:30:24;95355.53;;;25.44;44.67
11268;BME280;49397;47.474;9.416;2023-07-20T10:32:51;95357.44;;;24.92;43.98
11268;BME280;49397;47.474;9.416;2023-07-20T10:35:18;95353.59;;;25.41;45.50
11268;BME280;49397;47.474;9.416;2023-07-20T10:40:28;95357.47;;;25.92;42.99
11268;BME280;49397;47.474;9.416;2023-07-20T10:43:00;95355.13;;;25.90;42.74
11268;BME280;49397;47.474;9.416;2023-07-20T10:45:39;95344.44;;;26.03;40.61
11268;BME280;49397;47.474;9.416;2023-07-20T10:48:16;95341.81;;;24.96;42.78
11268;BME280;49397;47.474;9.416;2023-07-20T10:50:43;95343.75;;;24.99;43.47
11268;BME280;49397;47.474;9.416;2023-07-20T10:53:10;95340.72;;;25.38;42.71
11268;BME280;49397;47.474;9.416;2023-07-20T10:55:36;95334.03;;;25.87;41.00
11268;BME280;49397;47.474;9.416;2023-07-20T10:58:12;95341.34;;;25.60;42.89
11268;BME280;49397;47.474;9.416;2023-07-20T11:00:56;95334.28;;;26.03;42.65
11268;BME280;49397;47.474;9.416;2023-07-20T11:03:36;95323.63;;;25.75;42.42
11268;BME280;49397;47.474;9.416;2023-07-20T11:06:29;95324.88;;;26.01;42.10
11268;BME280;49397;47.474;9.416;2023-07-20T11:09:08;95324.13;;;26.34;40.87
11268;BME280;49397;47.474;9.416;2023-07-20T11:11:41;95326.72;;;26.48;41.58
11268;BME280;49397;47.474;9.416;2023-07-20T11:14:27;95325.94;;;26.74;40.43
11268;BME280;49397;47.474;9.416;2023-07-20T11:16:53;95328.00;;;26.97;40.62
11268;BME280;49397;47.474;9.416;2023-07-20T11:19:24;95315.31;;;27.07;41.24
11268;BME280;49397;47.474;9.416;2023-07-20T11:21:51;95316.09;;;27.07;40.89
11268;BME280;49397;47.474;9.416;2023-07-20T11:24:17;95322.47;;;27.01;40.56
11268;BME280;49397;47.474;9.416;2023-07-20T11:26:44;95316.63;;;25.67;40.54
11268;BME280;49397;47.474;9.416;2023-07-20T11:29:11;95306.34;;;26.15;41.05
11268;BME280;49397;47.474;9.416;2023-07-20T11:31:40;95307.09;;;26.50;41.74
11268;BME280;49397;47.474;9.416;2023-07-20T11:36:33;95303.19;;;26.77;41.21
11268;BME280;49397;47.474;9.416;2023-07-20T11:38:59;95300.63;;;26.67;38.95
11268;BME280;49397;47.474;9.416;2023-07-20T11:41:25;95302.22;;;27.18;38.90
11268;BME280;49397;47.474;9.416;2023-07-20T11:43:52;95299.88;;;26.63;39.97
11268;BME280;49397;47.474;9.416;2023-07-20T11:46:17;95298.28;;;27.42;39.67
11268;BME280;49397;47.474;9.416;2023-07-20T11:48:43;95300.16;;;27.72;39.13
11268;BME280;49397;47.474;9.416;2023-07-20T11:51:15;95300.91;;;26.72;38.93
11268;BME280;49397;47.474;9.416;2023-07-20T11:53:43;95297.38;;;26.45;40.21
11268;BME280;49397;47.474;9.416;2023-07-20T11:56:08;95290.19;;;27.12;39.67
11268;BME280;49397;47.474;9.416;2023-07-20T11:58:33;95288.00;;;26.43;40.22
11268;BME280;49397;47.474;9.416;2023-07-20T12:00:59;95293.31;;;26.26;40.74
11268;BME280;49397;47.474;9.416;2023-07-20T12:03:24;95285.50;;;26.25;40.78
11268;BME280;49397;47.474;9.416;2023-07-20T12:05:50;95278.81;;;27.10;40.74
11268;BME280;49397;47.474;9.416;2023-07-20T12:08:16;95272.41;;;26.66;39.54
11268;BME280;49397;47.474;9.416;2023-07-20T12:10:42;95273.16;;;27.20;40.14
11268;BME280;49397;47.474;9.416;2023-07-20T12:13:09;95270.69;;;27.03;39.51
11268;BME280;49397;47.474;9.416;2023-07-20T12:15:35;95264.66;;;26.88;40.44
11268;BME280;49397;47.474;9.416;2023-07-20T12:18:02;95253.22;;;27.16;39.51
11268;BME280;49397;47.474;9.416;2023-07-20T12:20:35;95257.41;;;27.01;39.47
11268;BME280;49397;47.474;9.416;2023-07-20T12:23:08;95253.19;;;27.66;38.84
11268;BME280;49397;47.474;9.416;2023-07-20T12:25:37;95248.47;;;27.86;38.98
11268;BME280;49397;47.474;9.416;2023-07-20T12:28:06;95254.91;;;28.19;39.35
11268;BME280;49397;47.474;9.416;2023-07-20T12:30:32;95249.97;;;27.48;39.05
11268;BME280;49397;47.474;9.416;2023-07-20T12:32:57;95243.34;;;26.99;37.89
11268;BME280;49397;47.474;9.416;2023-07-20T12:35:22;95242.72;;;27.58;37.54
11268;BME280;49397;47.474;9.416;2023-07-20T12:37:48;95242.34;;;27.79;39.50
11268;BME280;49397;47.474;9.416;2023-07-20T12:40:14;95247.22;;;27.48;38.08
11268;BME280;49397;47.474;9.416;2023-07-20T12:42:39;95242.66;;;27.61;36.89
11268;BME280;49397;47.474;9.416;2023-07-20T12:45:05;95236.81;;;27.13;38.18
11268;BME280;49397;47.474;9.416;2023-07-20T12:47:31;95240.22;;;26.97;38.95
11268;BME280;49397;47.474;9.416;2023-07-20T12:49:56;95233.19;;;27.66;37.34
11268;BME280;49397;47.474;9.416;2023-07-20T12:52:22;95232.34;;;27.69;37.53
11268;BME280;49397;47.474;9.416;2023-07-20T12:54:47;95231.84;;;28.33;38.28
11268;BME280;49397;47.474;9.416;2023-07-20T12:57:12;95231.66;;;28.24;36.61
11268;BME280;49397;47.474;9.416;2023-07-20T12:59:38;95224.63;;;28.39;37.40
11268;BME280;49397;47.474;9.416;2023-07-20T13:02:03;95222.03;;;27.53;38.57
11268;BME280;49397;47.474;9.416;2023-07-20T13:04:29;95227.25;;;27.24;38.23
11268;BME280;49397;47.474;9.416;2023-07-20T13:06:55;95223.00;;;27.20;39.49
11268;BME280;49397;47.474;9.416;2023-07-20T13:09:20;95217.56;;;26.93;39.52
11268;BME280;49397;47.474;9.416;2023-07-20T13:11:46;95221.63;;;26.85;39.75